Time;durP1;ratioP1;P1;durP2;ratioP2;P2;SDS_P1;SDS_P2;PMS_P1;PMS_P2;Temp;Humidity;BMP_temperature;BMP_pressure;BME280_temperature;BME280_humidity;BME280_pressure;Samples;Min_cycle;Max_cycle;Signal;HPM_P1;HPM_P2
2023/12/11 00:01:43;;;;;;;;;5.00;2.00;;;;;12.57;80.05;100136.59;4943731;28;58406;-76
2023/12/11 00:04:08;;;;;;;;;1.75;1.75;;;;;12.54;80.40;100138.44;4945364;28;48699;-78
2023/12/11 00:06:34;;;;;;;;;3.25;1.25;;;;;12.54;80.22;100138.44;4944322;28;66810;-77
2023/12/11 00:08:59;;;;;;;;;2.00;1.00;;;;;12.52;79.96;100129.78;4946870;28;45407;-77
2023/12/11 00:11:25;;;;;;;;;4.00;2.00;;;;;12.51;79.89;100129.84;4952430;28;49409;-77
2023/12/11 00:13:50;;;;;;;;;1.00;1.00;;;;;12.48;79.79;100124.72;4945056;28;73658;-76
2023/12/11 00:16:16;;;;;;;;;3.00;1.00;;;;;12.48;80.01;100120.38;4940254;28;71941;-76
2023/12/11 00:18:42;;;;;;;;;4.75;2.50;;;;;12.47;79.58;100121.28;4931655;28;45402;-77
2023/12/11 00:21:07;;;;;;;;;1.25;1.00;;;;;12.44;79.57;100116.16;4944157;28;72058;-76
2023/12/11 00:23:32;;;;;;;;;4.00;1.00;;;;;12.44;79.44;100123.19;4943585;28;74849;-76
2023/12/11 00:25:58;;;;;;;;;6.50;1.00;;;;;12.43;79.62;100124.09;4941307;28;58316;-76
2023/12/11 00:28:23;;;;;;;;;3.75;1.50;;;;;12.40;79.36;100114.59;4939858;28;53812;-76
2023/12/11 00:30:48;;;;;;;;;4.50;1.00;;;;;12.38;79.37;100100.69;4939718;28;64345;-75
2023/12/11 00:33:13;;;;;;;;;2.00;1.00;;;;;12.35;79.58;100100.81;4956410;28;45344;-76
2023/12/11 00:35:39;;;;;;;;;1.50;1.50;;;;;12.34;79.04;100109.59;4944438;28;73087;-77
2023/12/11 00:38:04;;;;;;;;;2.25;1.00;;;;;12.28;78.80;100091.53;4941823;28;68288;-75
2023/12/11 00:40:29;;;;;;;;;2.75;1.00;;;;;12.30;78.91;100101.00;4940042;28;74972;-76
2023/12/11 00:42:55;;;;;;;;;4.00;1.00;;;;;12.27;79.17;100101.19;4945192;28;74622;-76
2023/12/11 00:45:20;;;;;;;;;2.00;1.00;;;;;12.26;79.17;100109.94;4939702;28;45244;-76
2023/12/11 00:47:45;;;;;;;;;6.00;1.00;;;;;12.24;78.73;100113.56;4919668;28;65489;-76
2023/12/11 00:50:11;;;;;;;;;3.25;1.00;;;;;12.22;78.91;100107.56;4951049;28;64239;-76
2023/12/11 00:52:36;;;;;;;;;6.25;2.50;;;;;12.21;79.09;100105.84;4935379;28;75410;-76
2023/12/11 00:55:02;;;;;;;;;4.75;2.50;;;;;12.18;78.96;100114.66;4938783;28;66580;-76
2023/12/11 00:57:27;;;;;;;;;4.75;1.00;;;;;12.18;78.82;100108.59;4943328;28;45445;-77
2023/12/11 00:59:53;;;;;;;;;4.50;2.00;;;;;12.15;78.99;100102.56;4946322;28;45394;-77
2023/12/11 01:02:18;;;;;;;;;3.75;1.00;;;;;12.14;78.75;100092.97;4966049;28;74533;-76
2023/12/11 01:04:44;;;;;;;;;3.75;1.75;;;;;12.13;78.64;100090.44;4956693;28;45386;-76
2023/12/11 01:07:10;;;;;;;;;6.25;2.00;;;;;12.13;78.60;100093.06;4951046;28;45380;-76
2023/12/11 01:09:35;;;;;;;;;5.00;1.25;;;;;12.11;78.92;100090.50;4930347;28;45382;-76
2023/12/11 01:12:00;;;;;;;;;3.00;1.50;;;;;12.11;78.86;100094.88;4944894;28;53434;-75
2023/12/11 01:14:26;;;;;;;;;3.50;2.75;;;;;12.10;78.48;100114.16;4944321;28;45518;-76
2023/12/11 01:16:51;;;;;;;;;5.50;1.50;;;;;12.10;78.44;100127.28;4945884;28;63822;-76
2023/12/11 01:19:17;;;;;;;;;5.25;0.75;;;;;12.08;78.42;100116.00;4953730;28;45992;-76
2023/12/11 01:21:44;;;;;;;;;4.25;2.00;;;;;12.08;78.28;100131.75;4953696;28;45581;-76
2023/12/11 01:24:10;;;;;;;;;2.00;1.00;;;;;12.08;78.00;100129.97;4948293;28;45262;-76
2023/12/11 01:26:35;;;;;;;;;1.75;1.50;;;;;12.04;78.35;100136.28;4944697;28;45415;-77
2023/12/11 01:29:02;;;;;;;;;6.00;2.00;;;;;12.05;78.38;100140.59;4944533;28;45525;-77
2023/12/11 01:31:27;;;;;;;;;3.25;1.75;;;;;12.07;78.19;100146.59;4944836;28;73005;-76
2023/12/11 01:33:52;;;;;;;;;2.50;1.00;;;;;12.08;78.36;100150.94;4940011;28;72305;-77
2023/12/11 01:36:18;;;;;;;;;2.50;2.00;;;;;12.06;78.05;100126.56;4945365;28;62072;-76
2023/12/11 01:38:43;;;;;;;;;4.00;2.00;;;;;12.06;78.31;100123.09;4944651;28;65542;-76
2023/12/11 01:41:08;;;;;;;;;3.75;2.00;;;;;12.00;78.31;100097.97;4944688;28;46095;-76
2023/12/11 01:43:34;;;;;;;;;2.25;1.00;;;;;12.05;78.15;100103.88;4945227;28;54030;-76
2023/12/11 01:46:03;;;;;;;;;4.00;1.75;;;;;12.06;77.83;100112.59;4954757;28;56580;-77
2023/12/11 01:48:28;;;;;;;;;2.50;2.00;;;;;12.09;77.92;100118.56;4950343;28;45452;-77
2023/12/11 01:50:54;;;;;;;;;3.25;1.00;;;;;12.09;77.86;100118.56;4963127;28;46194;-76
2023/12/11 01:53:20;;;;;;;;;3.00;2.50;;;;;12.13;77.75;100121.91;4940313;28;45765;-76
2023/12/11 01:55:47;;;;;;;;;3.25;1.25;;;;;12.12;77.90;100128.91;4948506;28;45500;-76
2023/12/11 01:58:12;;;;;;;;;2.00;2.00;;;;;12.18;77.93;100143.53;4949707;28;45521;-77
2023/12/11 02:00:37;;;;;;;;;5.50;1.00;;;;;12.21;77.63;100138.16;4947467;28;48164;-77
2023/12/11 02:03:03;;;;;;;;;6.00;1.00;;;;;12.20;77.63;100125.97;4928932;28;72093;-77
2023/12/11 02:05:28;;;;;;;;;5.25;2.00;;;;;12.23;77.60;100127.59;4948117;28;45280;-77
2023/12/11 02:07:53;;;;;;;;;4.75;3.00;;;;;12.25;77.34;100108.25;4943910;28;66449;-77
2023/12/11 02:10:19;;;;;;;;;4.00;1.50;;;;;12.26;77.01;100114.34;4935233;28;45713;-77
2023/12/11 02:12:44;;;;;;;;;5.75;1.50;;;;;12.27;77.38;100116.03;4940641;28;45536;-77
2023/12/11 02:15:10;;;;;;;;;2.25;1.75;;;;;12.26;77.35;100096.00;4945770;28;45335;-77
2023/12/11 02:17:35;;;;;;;;;7.00;2.00;;;;;12.26;77.39;100085.50;4946376;28;61092;-77
2023/12/11 02:20:00;;;;;;;;;4.00;1.00;;;;;12.27;77.01;100097.69;4946218;28;70123;-77
2023/12/11 02:22:26;;;;;;;;;8.50;1.00;;;;;12.24;77.17;100096.06;4934344;28;73143;-77
2023/12/11 02:24:58;;;;;;;;;2.50;1.25;;;;;12.24;77.48;100103.94;4941402;28;69446;-77
2023/12/11 02:27:24;;;;;;;;;6.75;1.50;;;;;12.22;77.04;100095.28;4926237;28;45312;-77
2023/12/11 02:29:50;;;;;;;;;3.25;2.00;;;;;12.19;77.11;100089.31;4932057;28;47090;-76
2023/12/11 02:32:16;;;;;;;;;4.00;1.00;;;;;12.20;77.32;100086.63;4943958;28;45505;-76
2023/12/11 02:34:41;;;;;;;;;2.50;1.00;;;;;12.18;77.13;100091.06;4943783;28;45774;-75
2023/12/11 02:37:07;;;;;;;;;5.50;1.75;;;;;12.18;77.55;100085.81;4947560;28;57710;-75
2023/12/11 02:39:32;;;;;;;;;1.75;1.00;;;;;12.17;77.50;100099.88;4942175;28;69876;-76
2023/12/11 02:41:57;;;;;;;;;5.25;1.25;;;;;12.17;77.23;100099.03;4944968;28;45462;-76
2023/12/11 02:44:23;;;;;;;;;5.75;2.00;;;;;12.18;77.75;100074.47;4951394;28;45412;-75
2023/12/11 02:46:48;;;;;;;;;2.50;0.75;;;;;12.18;77.34;100061.38;4945482;28;45351;-75
2023/12/11 02:49:13;;;;;;;;;3.25;1.25;;;;;12.22;77.87;100060.34;4925595;28;51327;-75
2023/12/11 02:51:39;;;;;;;;;6.25;2.00;;;;;12.26;77.24;100069.75;4954742;28;68461;-75
2023/12/11 02:54:04;;;;;;;;;4.25;2.25;;;;;12.28;77.14;100088.91;4939319;28;45391;-75
2023/12/11 02:56:29;;;;;;;;;2.00;1.00;;;;;12.30;77.13;100092.31;4946952;28;45369;-76
2023/12/11 02:58:55;;;;;;;;;7.00;1.00;;;;;12.31;77.30;100080.91;4941360;28;75631;-76
2023/12/11 03:01:20;;;;;;;;;1.75;1.00;;;;;12.31;77.45;100073.03;4940210;28;70826;-75
2023/12/11 03:03:45;;;;;;;;;3.75;1.00;;;;;12.29;77.00;100073.09;4942153;28;45537;-76
2023/12/11 03:06:18;;;;;;;;;8.00;3.00;;;;;12.30;77.07;100081.81;4940978;28;74337;-76
2023/12/11 03:08:43;;;;;;;;;4.50;2.00;;;;;12.28;77.27;100075.78;4953648;28;46192;-76
2023/12/11 03:11:09;;;;;;;;;9.00;1.25;;;;;12.26;77.11;100083.72;4936235;28;50376;-77
2023/12/11 03:13:35;;;;;;;;;2.00;1.00;;;;;12.28;77.10;100087.13;4941249;28;45389;-76
2023/12/11 03:16:00;;;;;;;;;3.00;1.25;;;;;12.28;77.50;100071.38;4954796;28;64383;-77
2023/12/11 03:18:25;;;;;;;;;7.00;2.00;;;;;12.31;77.22;100059.91;4941420;28;68981;-77
2023/12/11 03:20:50;;;;;;;;;4.75;1.00;;;;;12.31;77.14;100054.66;4922567;28;72842;-77
2023/12/11 03:23:16;;;;;;;;;5.25;1.25;;;;;12.31;77.06;100055.50;4938056;28;59403;-77
2023/12/11 03:25:41;;;;;;;;;4.00;2.00;;;;;12.33;77.00;100058.91;4940683;28;69410;-76
2023/12/11 03:28:06;;;;;;;;;4.75;1.75;;;;;12.33;76.92;100045.78;4946125;28;68773;-75
2023/12/11 03:30:32;;;;;;;;;2.25;1.00;;;;;12.32;76.82;100040.59;4940376;28;72931;-75
2023/12/11 03:32:57;;;;;;;;;4.00;2.00;;;;;12.33;77.38;100024.78;4941203;28;49183;-75
2023/12/11 03:35:22;;;;;;;;;5.00;1.00;;;;;12.37;76.78;100043.03;4941330;28;71715;-70
2023/12/11 03:37:48;;;;;;;;;5.75;1.00;;;;;12.37;76.58;100040.41;4942579;28;45216;-73
2023/12/11 03:40:13;;;;;;;;;4.75;1.75;;;;;12.33;77.23;100048.41;4941718;28;72411;-76
2023/12/11 03:42:39;;;;;;;;;2.25;1.00;;;;;12.38;77.02;100057.84;4925068;28;45444;-75
2023/12/11 03:45:04;;;;;;;;;4.00;1.00;;;;;12.35;76.74;100043.94;4939151;28;71955;-76
2023/12/11 03:47:30;;;;;;;;;4.50;1.00;;;;;12.39;77.00;100043.81;4938500;28;46338;-76
2023/12/11 03:49:55;;;;;;;;;7.50;2.50;;;;;12.39;77.26;100014.94;4939706;28;56830;-76
2023/12/11 03:52:21;;;;;;;;;3.25;1.75;;;;;12.42;76.74;99980.69;4939163;28;45406;-76
2023/12/11 03:54:46;;;;;;;;;8.75;1.50;;;;;12.40;76.89;100001.75;4937543;28;45605;-76
2023/12/11 03:57:12;;;;;;;;;1.75;1.75;;;;;12.44;77.05;100033.97;4944728;28;46353;-76
2023/12/11 03:59:37;;;;;;;;;1.75;1.75;;;;;12.42;77.14;100026.16;4922782;28;72073;-76
2023/12/11 04:02:02;;;;;;;;;6.25;3.00;;;;;12.44;77.12;100026.94;4939395;28;69260;-77
2023/12/11 04:04:28;;;;;;;;;6.00;1.50;;;;;12.45;77.13;100031.25;4940241;28;45464;-76
2023/12/11 04:06:53;;;;;;;;;5.50;0.50;;;;;12.43;77.29;100027.88;4954003;28;46062;-77
2023/12/11 04:09:19;;;;;;;;;4.50;3.00;;;;;12.48;76.89;100049.50;4939606;28;51884;-76
2023/12/11 04:11:44;;;;;;;;;4.75;2.00;;;;;12.51;76.82;100024.88;4941776;28;67722;-77
2023/12/11 04:14:10;;;;;;;;;4.75;1.00;;;;;12.49;76.66;100019.69;4938144;28;45373;-77
2023/12/11 04:16:35;;;;;;;;;4.00;2.00;;;;;12.49;77.34;100021.47;4937338;28;71800;-76
2023/12/11 04:19:00;;;;;;;;;8.00;2.00;;;;;12.52;77.29;100022.19;4943726;28;69578;-76
2023/12/11 04:21:25;;;;;;;;;6.75;2.00;;;;;12.53;76.92;100030.91;4923293;28;69005;-76
2023/12/11 04:23:51;;;;;;;;;4.25;2.00;;;;;12.52;76.81;100034.47;4940849;28;53132;-76
2023/12/11 04:26:16;;;;;;;;;5.00;3.00;;;;;12.54;77.12;100048.38;4938876;28;77758;-76
2023/12/11 04:28:41;;;;;;;;;5.25;1.50;;;;;12.56;76.85;100064.03;4940795;28;56939;-77
2023/12/11 04:31:07;;;;;;;;;7.00;2.00;;;;;12.57;77.37;100060.47;4940581;28;68919;-77
2023/12/11 04:33:36;;;;;;;;;5.75;3.50;;;;;12.59;76.86;100043.75;4938561;28;72015;-77
2023/12/11 04:36:07;;;;;;;;;8.50;2.75;;;;;12.62;77.12;100040.13;4940668;28;45508;-76
2023/12/11 04:38:32;;;;;;;;;6.00;2.50;;;;;12.62;76.98;100009.47;4943364;28;45421;-76
2023/12/11 04:40:57;;;;;;;;;8.50;2.00;;;;;12.65;76.67;100032.94;4942318;28;63316;-75
2023/12/11 04:43:23;;;;;;;;;3.75;1.25;;;;;12.67;76.68;100049.47;4948471;28;69985;-76
2023/12/11 04:45:49;;;;;;;;;6.75;1.75;;;;;12.69;76.82;100045.00;4943101;28;70090;-75
2023/12/11 04:48:14;;;;;;;;;4.75;2.00;;;;;12.71;76.83;100032.69;4943686;28;45420;-76
2023/12/11 04:50:39;;;;;;;;;7.25;1.50;;;;;12.71;76.68;100013.44;4940366;28;45371;-77
2023/12/11 04:53:05;;;;;;;;;4.00;1.75;;;;;12.72;76.74;100010.75;4937402;28;65966;-77
2023/12/11 04:55:30;;;;;;;;;5.75;3.00;;;;;12.73;76.64;100009.81;4953280;28;47993;-76
2023/12/11 04:57:55;;;;;;;;;2.75;1.75;;;;;12.78;76.75;100008.75;4939471;28;45376;-76
2023/12/11 05:00:21;;;;;;;;;5.00;3.00;;;;;12.77;76.64;100013.16;4952886;28;58454;-76
2023/12/11 05:02:46;;;;;;;;;4.50;2.00;;;;;12.76;76.27;100035.06;4924067;28;45403;-77
2023/12/11 05:05:13;;;;;;;;;3.00;2.00;;;;;12.78;76.69;100042.88;4938803;28;51630;-77
2023/12/11 05:07:39;;;;;;;;;4.00;0.75;;;;;12.76;76.53;100049.97;4939655;28;45468;-77
2023/12/11 05:10:05;;;;;;;;;7.25;4.00;;;;;12.76;76.11;100044.72;4938692;28;53727;-77
2023/12/11 05:12:30;;;;;;;;;3.50;3.00;;;;;12.77;76.10;100055.16;4939080;28;45587;-77
2023/12/11 05:14:55;;;;;;;;;6.25;3.00;;;;;12.77;76.54;100043.81;4939747;28;72391;-77
2023/12/11 05:17:21;;;;;;;;;5.25;1.00;;;;;12.77;76.44;100049.91;4938657;28;45681;-77
2023/12/11 05:19:46;;;;;;;;;2.00;1.75;;;;;12.77;76.34;100072.69;4938913;28;59133;-77
2023/12/11 05:22:11;;;;;;;;;4.00;1.75;;;;;12.73;76.12;100075.47;4940458;28;45705;-76
2023/12/11 05:24:37;;;;;;;;;6.75;2.50;;;;;12.76;76.03;100057.84;4940660;28;74187;-77
2023/12/11 05:27:02;;;;;;;;;6.50;2.75;;;;;12.78;76.11;100046.34;4938395;28;73902;-76
2023/12/11 05:29:27;;;;;;;;;3.00;1.50;;;;;12.81;75.95;100051.47;4940569;28;45462;-76
2023/12/11 05:31:53;;;;;;;;;5.00;2.75;;;;;12.83;75.92;100054.03;4937489;28;56976;-76
2023/12/11 05:34:18;;;;;;;;;6.00;1.00;;;;;12.87;75.83;100066.94;4937891;28;74559;-75
2023/12/11 05:36:43;;;;;;;;;3.75;2.00;;;;;12.86;76.12;100054.72;4938261;28;73247;-75
2023/12/11 05:39:08;;;;;;;;;8.50;2.00;;;;;12.90;75.99;100058.91;4939650;28;67948;-75
2023/12/11 05:41:34;;;;;;;;;13.25;3.00;;;;;12.89;75.86;100059.84;4938025;28;72124;-75
2023/12/11 05:43:59;;;;;;;;;3.00;1.00;;;;;12.93;76.05;100060.53;4942400;28;46149;-75
2023/12/11 05:46:25;;;;;;;;;5.50;2.00;;;;;12.92;75.87;100043.06;4944670;28;45315;-75
2023/12/11 05:48:50;;;;;;;;;6.75;2.00;;;;;12.94;75.46;100058.75;4945257;28;50105;-75
2023/12/11 05:51:16;;;;;;;;;5.00;1.00;;;;;12.95;75.64;100026.34;4924449;28;45436;-75
2023/12/11 05:53:41;;;;;;;;;8.00;1.75;;;;;12.94;75.39;100033.34;4943484;28;60625;-76
2023/12/11 05:56:07;;;;;;;;;3.50;2.00;;;;;12.94;75.69;100050.88;4941320;28;66042;-75
2023/12/11 05:58:32;;;;;;;;;4.50;2.00;;;;;12.94;75.48;100059.59;4945093;28;45252;-75
2023/12/11 06:00:57;;;;;;;;;5.25;2.00;;;;;12.97;75.52;100066.50;4941043;28;73299;-76
2023/12/11 06:03:23;;;;;;;;;7.00;2.00;;;;;12.99;75.14;100067.28;4942720;28;55064;-76
2023/12/11 06:05:55;;;;;;;;;3.75;2.75;;;;;12.98;75.34;100069.06;4938045;28;66596;-76
2023/12/11 06:08:20;;;;;;;;;4.75;1.50;;;;;12.98;75.00;100063.81;4941480;28;45463;-76
2023/12/11 06:10:45;;;;;;;;;4.75;1.50;;;;;12.93;74.96;100068.41;4942459;28;73095;-76
2023/12/11 06:13:11;;;;;;;;;4.00;3.00;;;;;12.97;75.04;100069.13;4940640;28;74370;-76
2023/12/11 06:15:36;;;;;;;;;3.50;2.75;;;;;12.99;74.90;100076.00;4925342;28;52439;-76
2023/12/11 06:18:01;;;;;;;;;2.25;1.00;;;;;13.00;75.06;100069.00;4941118;28;54287;-76
2023/12/11 06:20:27;;;;;;;;;5.25;2.00;;;;;13.01;74.60;100089.06;4941080;28;45417;-76
2023/12/11 06:22:52;;;;;;;;;7.75;1.25;;;;;13.01;74.88;100084.66;4942861;28;61022;-76
2023/12/11 06:25:17;;;;;;;;;4.25;1.50;;;;;13.00;74.83;100080.34;4940948;28;67778;-76
2023/12/11 06:27:43;;;;;;;;;6.00;2.00;;;;;13.03;74.56;100098.59;4946193;28;45500;-75
2023/12/11 06:30:08;;;;;;;;;6.50;2.00;;;;;13.00;74.34;100071.63;4944935;28;45469;-75
2023/12/11 06:32:34;;;;;;;;;6.75;2.00;;;;;12.99;74.30;100078.63;4943008;28;47334;-71
2023/12/11 06:34:59;;;;;;;;;6.50;2.50;;;;;12.98;74.73;100084.81;4967533;28;70760;-67
2023/12/11 06:37:25;;;;;;;;;6.25;2.25;;;;;12.97;74.22;100079.63;4943972;28;45456;-69
2023/12/11 06:39:50;;;;;;;;;8.50;2.00;;;;;12.94;74.31;100091.13;4941604;28;71964;-71
2023/12/11 06:42:15;;;;;;;;;2.00;2.00;;;;;12.91;74.62;100102.63;4929939;28;47889;-75
2023/12/11 06:44:41;;;;;;;;;4.75;1.00;;;;;12.89;74.46;100101.84;4953726;28;45302;-73
2023/12/11 06:47:06;;;;;;;;;5.25;3.00;;;;;12.90;74.50;100108.78;4963598;28;68134;-69
2023/12/11 06:49:31;;;;;;;;;8.00;3.00;;;;;12.89;74.49;100099.22;4950544;28;73271;-77
2023/12/11 06:51:57;;;;;;;;;9.00;3.00;;;;;12.93;74.45;100109.59;4928488;28;63074;-74
2023/12/11 06:54:22;;;;;;;;;6.00;2.75;;;;;12.93;74.38;100101.72;4956019;28;66432;-71
2023/12/11 06:56:47;;;;;;;;;7.50;1.50;;;;;12.93;74.25;100104.34;4957591;28;68211;-69
2023/12/11 06:59:13;;;;;;;;;5.75;3.00;;;;;12.89;74.61;100085.22;4941455;28;73201;-72
2023/12/11 07:01:38;;;;;;;;;4.50;1.50;;;;;12.93;74.62;100101.72;4925485;28;71536;-72
2023/12/11 07:04:04;;;;;;;;;7.00;2.00;;;;;12.89;74.51;100091.34;4922752;28;45364;-73
2023/12/11 07:06:29;;;;;;;;;8.00;2.00;;;;;12.89;74.54;100090.47;4941391;28;45228;-74
2023/12/11 07:08:54;;;;;;;;;3.00;2.00;;;;;12.87;74.29;100102.84;4941559;28;51777;-81
2023/12/11 07:11:20;;;;;;;;;3.75;3.00;;;;;12.90;74.24;100115.81;4941711;28;48050;-74
2023/12/11 07:13:45;;;;;;;;;7.75;2.00;;;;;12.87;74.03;100116.84;4957023;28;45482;-81
2023/12/11 07:16:11;;;;;;;;;4.25;3.00;;;;;12.87;74.31;100129.97;4942683;28;45412;-74
2023/12/11 07:18:37;;;;;;;;;4.25;2.00;;;;;12.82;74.42;100118.81;4938454;28;45508;-72
2023/12/11 07:21:10;;;;;;;;;3.50;2.00;;;;;12.80;74.38;100120.66;4959416;28;47482;-72
2023/12/11 07:23:36;;;;;;;;;5.50;2.50;;;;;12.75;74.62;100133.16;4937437;28;45442;-73
2023/12/11 07:26:04;;;;;;;;;6.00;2.00;;;;;12.75;74.69;100130.53;4938370;28;69195;-77
2023/12/11 07:28:29;;;;;;;;;5.25;2.50;;;;;12.71;74.34;100128.94;4934363;28;45534;-77
2023/12/11 07:30:54;;;;;;;;;3.75;2.00;;;;;12.72;74.46;100144.63;4937791;28;45837;-75
2023/12/11 07:33:20;;;;;;;;;4.25;2.75;;;;;12.72;74.70;100147.25;4956764;28;46133;-75
2023/12/11 07:35:45;;;;;;;;;7.75;3.00;;;;;12.76;74.65;100160.25;4939898;28;68167;-75
2023/12/11 07:38:10;;;;;;;;;2.00;2.00;;;;;12.80;74.49;100164.44;4935699;28;72886;-74
2023/12/11 07:40:35;;;;;;;;;9.25;4.00;;;;;12.83;74.27;100173.03;4944349;28;75778;-74
2023/12/11 07:43:01;;;;;;;;;4.75;2.00;;;;;12.85;73.95;100184.31;4946162;28;71829;-74
2023/12/11 07:45:26;;;;;;;;;5.00;3.00;;;;;12.84;74.21;100171.28;4945992;28;68932;-78
2023/12/11 07:47:51;;;;;;;;;7.00;3.00;;;;;12.88;74.00;100173.66;4938592;28;71978;-74
2023/12/11 07:50:17;;;;;;;;;11.00;5.00;;;;;12.87;73.90;100155.34;4946581;28;53112;-75
2023/12/11 07:52:42;;;;;;;;;8.25;4.00;;;;;12.84;74.03;100171.28;4957778;28;71988;-74
2023/12/11 07:55:08;;;;;;;;;9.25;3.50;;;;;12.81;73.90;100172.25;4943029;28;45426;-73
2023/12/11 07:57:33;;;;;;;;;8.00;3.50;;;;;12.80;73.81;100172.31;4922449;28;46002;-74
2023/12/11 07:59:59;;;;;;;;;7.75;3.00;;;;;12.78;74.17;100182.03;4940343;28;47761;-75
2023/12/11 08:02:24;;;;;;;;;8.25;4.25;;;;;12.72;73.76;100184.00;4924221;28;45376;-74
2023/12/11 08:04:49;;;;;;;;;7.00;4.00;;;;;12.71;73.96;100203.34;4937261;28;68123;-74
2023/12/11 08:07:15;;;;;;;;;7.25;3.75;;;;;12.69;74.10;100197.28;4957672;28;73239;-74
2023/12/11 08:09:40;;;;;;;;;7.50;5.00;;;;;12.67;74.15;100199.13;4939853;28;46618;-74
2023/12/11 08:12:06;;;;;;;;;6.00;2.75;;;;;12.68;73.99;100200.00;4942796;28;58809;-73
2023/12/11 08:14:32;;;;;;;;;6.00;2.50;;;;;12.66;73.93;100207.06;4947655;28;45357;-73
2023/12/11 08:16:58;;;;;;;;;7.00;2.75;;;;;12.66;73.70;100215.81;4943930;28;45237;-73
2023/12/11 08:19:24;;;;;;;;;12.75;2.25;;;;;12.67;74.40;100208.78;4926851;28;48125;-74
2023/12/11 08:21:50;;;;;;;;;4.25;2.25;;;;;12.67;74.03;100219.28;4938052;28;45382;-74
2023/12/11 08:24:16;;;;;;;;;7.50;2.50;;;;;12.65;73.75;100218.50;4943076;28;45291;-74
2023/12/11 08:26:41;;;;;;;;;9.25;2.00;;;;;12.68;74.26;100231.50;4942585;28;45228;-73
2023/12/11 08:29:07;;;;;;;;;8.25;3.50;;;;;12.68;73.89;100226.25;4942487;28;77018;-73
2023/12/11 08:31:32;;;;;;;;;7.00;3.50;;;;;12.68;73.83;100226.25;4947617;28;62774;-74
2023/12/11 08:33:57;;;;;;;;;7.50;2.00;;;;;12.68;74.02;100237.59;4944954;28;45311;-74
2023/12/11 08:36:23;;;;;;;;;7.25;3.50;;;;;12.67;74.01;100243.75;4942146;28;72115;-74
2023/12/11 08:38:48;;;;;;;;;8.00;4.25;;;;;12.67;73.67;100241.13;4946426;28;75625;-73
2023/12/11 08:41:13;;;;;;;;;7.25;2.50;;;;;12.66;73.77;100238.56;4942611;28;71260;-73
2023/12/11 08:43:40;;;;;;;;;9.50;3.00;;;;;12.66;73.73;100246.44;4940004;28;59280;-73
2023/12/11 08:46:05;;;;;;;;;9.25;3.00;;;;;12.62;73.70;100243.09;4940309;28;45387;-74
2023/12/11 08:48:31;;;;;;;;;5.75;3.00;;;;;12.61;73.46;100251.91;4947001;28;46106;-74
2023/12/11 08:50:56;;;;;;;;;6.00;2.50;;;;;12.61;74.01;100256.31;4938079;28;70174;-75
2023/12/11 08:53:22;;;;;;;;;12.25;4.00;;;;;12.59;73.97;100258.13;4959159;28;69276;-75
2023/12/11 08:55:48;;;;;;;;;4.50;3.00;;;;;12.56;73.70;100245.16;4939675;28;45438;-74
2023/12/11 08:58:14;;;;;;;;;6.25;3.00;;;;;12.52;73.71;100253.16;4951858;28;45966;-75
2023/12/11 09:00:39;;;;;;;;;7.75;4.00;;;;;12.55;74.01;100260.03;4939869;28;52411;-75
2023/12/11 09:03:05;;;;;;;;;9.75;4.50;;;;;12.53;73.94;100260.09;4942326;28;45417;-75
2023/12/11 09:05:30;;;;;;;;;2.75;2.00;;;;;12.52;73.55;100260.19;4957308;28;45402;-76
2023/12/11 09:07:55;;;;;;;;;9.75;4.00;;;;;12.51;73.68;100261.94;4939007;28;45995;-75
2023/12/11 09:10:21;;;;;;;;;10.50;3.75;;;;;12.50;73.99;100270.75;4938958;28;66954;-75
2023/12/11 09:12:47;;;;;;;;;7.25;4.00;;;;;12.46;73.88;100269.13;4942956;28;45377;-75
2023/12/11 09:15:12;;;;;;;;;9.50;2.50;;;;;12.46;73.91;100276.16;4956995;28;70967;-75
2023/12/11 09:17:38;;;;;;;;;6.50;2.50;;;;;12.46;74.00;100265.66;4942110;28;54975;-75
2023/12/11 09:20:06;;;;;;;;;5.00;2.50;;;;;12.44;74.16;100260.47;4938443;28;45407;-75
2023/12/11 09:22:31;;;;;;;;;8.00;3.00;;;;;12.45;74.23;100274.47;4944972;28;45559;-74
2023/12/11 09:24:56;;;;;;;;;5.00;2.75;;;;;12.44;73.80;100284.09;4946768;28;75611;-73
2023/12/11 09:27:22;;;;;;;;;6.00;3.00;;;;;12.44;74.03;100281.47;4944873;28;72848;-75
2023/12/11 09:29:48;;;;;;;;;6.75;4.00;;;;;12.43;74.20;100282.41;4965266;28;64356;-74
2023/12/11 09:32:14;;;;;;;;;9.75;4.50;;;;;12.44;73.95;100288.50;4945920;28;45342;-75
2023/12/11 09:34:39;;;;;;;;;11.75;2.75;;;;;12.42;73.74;100285.94;4951123;28;45688;-74
2023/12/11 09:37:05;;;;;;;;;6.25;4.50;;;;;12.40;74.06;100287.78;4944022;28;71519;-75
2023/12/11 09:39:32;;;;;;;;;6.50;3.75;;;;;12.40;74.40;100300.91;4947058;28;45641;-73
2023/12/11 09:41:57;;;;;;;;;3.75;1.25;;;;;12.41;74.30;100312.25;4944576;28;60392;-74
2023/12/11 09:44:23;;;;;;;;;8.50;5.25;;;;;12.39;74.29;100301.81;4925182;28;68415;-74
2023/12/11 09:46:58;;;;;;;;;8.00;4.00;;;;;12.38;73.76;100313.25;4943262;28;75134;-74
2023/12/11 09:49:24;;;;;;;;;10.25;3.00;;;;;12.38;74.10;100315.00;4945061;28;45936;-74
2023/12/11 09:51:49;;;;;;;;;12.25;4.00;;;;;12.37;74.18;100332.50;4953827;28;45310;-74
2023/12/11 09:54:15;;;;;;;;;4.50;2.50;;;;;12.34;73.92;100325.63;4945008;28;57728;-75
2023/12/11 09:56:42;;;;;;;;;5.50;3.00;;;;;12.37;74.13;100334.28;4947009;28;72203;-75
2023/12/11 09:59:10;;;;;;;;;5.75;3.00;;;;;12.34;74.21;100325.63;4944344;28;45453;-75
2023/12/11 10:01:36;;;;;;;;;6.25;3.00;;;;;12.37;73.99;100340.38;4953737;28;45303;-72
2023/12/11 10:04:02;;;;;;;;;10.50;6.00;;;;;12.38;74.05;100341.22;4942896;28;45660;-73
2023/12/11 10:06:27;;;;;;;;;6.75;4.00;;;;;12.39;74.00;100337.69;4951682;28;47404;-73
2023/12/11 10:08:53;;;;;;;;;4.25;3.25;;;;;12.35;74.30;100343.06;4950662;28;67591;-73
2023/12/11 10:11:22;;;;;;;;;7.00;3.75;;;;;12.43;74.19;100358.53;4949437;28;45419;-73
2023/12/11 10:13:50;;;;;;;;;10.00;5.75;;;;;12.43;73.89;100355.91;4951623;28;45481;-74
2023/12/11 10:16:33;;;;;;;;;10.50;5.50;;;;;12.45;73.61;100353.22;4945654;28;45462;-73
2023/12/11 10:19:00;;;;;;;;;13.75;5.75;;;;;12.47;73.85;100338.25;4936560;28;45326;-73
2023/12/11 10:21:26;;;;;;;;;8.25;5.25;;;;;12.49;73.63;100345.13;4952330;28;45374;-73
2023/12/11 10:24:05;;;;;;;;;9.25;3.75;;;;;12.51;73.84;100350.31;4968124;28;45273;-73
2023/12/11 10:26:37;;;;;;;;;11.25;5.00;;;;;12.53;73.61;100348.47;4948115;28;47144;-73
2023/12/11 10:29:31;;;;;;;;;7.00;4.00;;;;;12.53;73.75;100345.84;4934466;28;45934;-73
2023/12/11 10:32:03;;;;;;;;;8.25;5.75;;;;;12.54;73.39;100351.03;4947577;28;45287;-74
2023/12/11 10:34:43;;;;;;;;;7.75;5.00;;;;;12.57;73.22;100347.47;4943759;28;45385;-74
2023/12/11 10:37:10;;;;;;;;;11.25;7.00;;;;;12.57;73.15;100347.47;4942876;28;45488;-73
2023/12/11 10:39:35;;;;;;;;;5.75;4.50;;;;;12.60;73.41;100347.31;4948335;28;45324;-73
2023/12/11 10:42:14;;;;;;;;;8.75;4.50;;;;;12.64;72.96;100342.78;4942152;28;45643;-73
2023/12/11 10:44:40;;;;;;;;;11.25;3.00;;;;;12.64;72.95;100343.66;4939296;28;45430;-73
2023/12/11 10:47:06;;;;;;;;;8.00;4.00;;;;;12.68;73.50;100353.09;4949710;28;46327;-73
2023/12/11 10:49:32;;;;;;;;;5.50;4.25;;;;;12.73;73.08;100355.56;4945924;28;45571;-73
2023/12/11 10:51:57;;;;;;;;;8.75;4.00;;;;;12.78;72.91;100350.09;4959310;28;45684;-73
2023/12/11 10:54:22;;;;;;;;;7.00;4.75;;;;;12.82;73.06;100349.03;4943358;28;45633;-73
2023/12/11 10:56:48;;;;;;;;;5.25;4.00;;;;;12.92;72.78;100350.34;4942138;28;75428;-73
2023/12/11 10:59:15;;;;;;;;;9.50;5.25;;;;;12.98;72.27;100357.97;4965480;28;45359;-73
2023/12/11 11:01:42;;;;;;;;;9.75;4.50;;;;;13.03;72.36;100356.00;4940878;28;66124;-72
2023/12/11 11:04:11;;;;;;;;;7.00;3.75;;;;;13.05;72.16;100354.16;4929375;28;45765;-72
2023/12/11 11:06:40;;;;;;;;;8.50;4.50;;;;;13.11;71.96;100353.88;4954121;28;45527;-72
2023/12/11 11:09:13;;;;;;;;;9.50;5.50;;;;;13.19;72.02;100350.94;4939033;28;46106;-71
2023/12/11 11:11:43;;;;;;;;;7.50;4.00;;;;;13.25;71.63;100355.06;4944059;28;45467;-72
2023/12/11 11:14:17;;;;;;;;;13.50;4.00;;;;;13.30;71.22;100351.31;4948548;28;45407;-72
2023/12/11 11:16:55;;;;;;;;;10.00;5.00;;;;;13.36;70.81;100358.09;4945571;28;46430;-73
2023/12/11 11:19:20;;;;;;;;;14.25;5.25;;;;;13.41;70.78;100345.59;4940495;28;45946;-73